Buckland Airport Buckland US
ICAO: PABL
IATA:
Category: Medium
Scheduled Services:

Elevation: 31 ft
TransAlt. 18000 ft.

Airport Communications:
AWOS 3:135.15
ANCHORAGE APP/DEP:119.2
CTAF:122.9
KOTZEBUE RDO:122.3

PABL Zoom In..

Runways:

(A) RW 11 length 3200 ft width 75 ft
---- / hdg 107

(B) RW 29 length 3200 ft width 75 ft
---- / hdg 287

Location; PABL
Day. 29 / Time. 08.56 Zulu
* Altimeter: 30.34
* Temperature: 07° c. 44.6°f.
* Wind from: 290° Speed 05 kn.
Dewpoint: 02° c.
Visibility: 10 Statute Miles.
Clouds: Clear (automated report).

PABL 290856Z AUTO 29005KT 10SM CLR 07/02 A3034 RMK AO2 SLP274 T00720022 55000


Wind From 290°
Speed 05 kn.

 
 
jpsmedia worldairports.se 2020   terms of use